sensor_id;sensor_type;location;lat;lon;timestamp;pressure;altitude;pressure_sealevel;temperature;humidity
3428;BME280;1727;42.624;23.406;2023-02-02T00:01:09;94950.56;;;5.34;70.15
3428;BME280;1727;42.624;23.406;2023-02-02T00:03:36;94944.53;;;5.33;70.73
3428;BME280;1727;42.624;23.406;2023-02-02T00:06:05;94932.66;;;5.29;70.50
3428;BME280;1727;42.624;23.406;2023-02-02T00:08:32;94941.00;;;5.20;69.36
3428;BME280;1727;42.624;23.406;2023-02-02T00:11:00;94953.19;;;5.19;67.84
3428;BME280;1727;42.624;23.406;2023-02-02T00:13:27;94947.91;;;5.21;67.66
3428;BME280;1727;42.624;23.406;2023-02-02T00:15:53;94941.00;;;5.20;66.15
3428;BME280;1727;42.624;23.406;2023-02-02T00:18:20;94940.53;;;5.27;65.83
3428;BME280;1727;42.624;23.406;2023-02-02T00:20:47;94936.91;;;5.30;65.83
3428;BME280;1727;42.624;23.406;2023-02-02T00:23:16;94934.72;;;5.24;65.71
3428;BME280;1727;42.624;23.406;2023-02-02T00:25:42;94945.44;;;5.32;65.49
3428;BME280;1727;42.624;23.406;2023-02-02T00:28:09;94939.03;;;5.38;64.65
3428;BME280;1727;42.624;23.406;2023-02-02T00:30:36;94940.38;;;5.43;64.31
3428;BME280;1727;42.624;23.406;2023-02-02T00:33:03;94941.69;;;5.50;63.38
3428;BME280;1727;42.624;23.406;2023-02-02T00:35:29;94946.78;;;5.52;63.18
3428;BME280;1727;42.624;23.406;2023-02-02T00:37:56;94955.97;;;5.57;62.74
3428;BME280;1727;42.624;23.406;2023-02-02T00:40:24;94947.97;;;5.60;62.52
3428;BME280;1727;42.624;23.406;2023-02-02T00:42:51;94958.72;;;5.69;63.31
3428;BME280;1727;42.624;23.406;2023-02-02T00:45:18;94962.03;;;5.71;63.17
3428;BME280;1727;42.624;23.406;2023-02-02T00:47:45;94962.88;;;5.71;63.80
3428;BME280;1727;42.624;23.406;2023-02-02T00:50:14;94968.91;;;5.72;63.28
3428;BME280;1727;42.624;23.406;2023-02-02T00:52:42;94964.53;;;5.72;62.98
3428;BME280;1727;42.624;23.406;2023-02-02T00:55:09;94957.97;;;5.67;63.07
3428;BME280;1727;42.624;23.406;2023-02-02T00:57:38;94957.78;;;5.70;64.14
3428;BME280;1727;42.624;23.406;2023-02-02T01:00:07;94953.50;;;5.69;64.93
3428;BME280;1727;42.624;23.406;2023-02-02T01:02:35;94958.19;;;5.64;64.83
3428;BME280;1727;42.624;23.406;2023-02-02T01:05:01;94952.44;;;5.58;66.50
3428;BME280;1727;42.624;23.406;2023-02-02T01:07:28;94950.13;;;5.54;65.48
3428;BME280;1727;42.624;23.406;2023-02-02T01:09:55;94948.56;;;5.51;65.61
3428;BME280;1727;42.624;23.406;2023-02-02T01:12:22;94935.25;;;5.56;65.47
3428;BME280;1727;42.624;23.406;2023-02-02T01:14:50;94928.75;;;5.49;67.98
3428;BME280;1727;42.624;23.406;2023-02-02T01:17:17;94933.88;;;5.50;69.88
3428;BME280;1727;42.624;23.406;2023-02-02T01:19:44;94933.06;;;5.50;69.47
3428;BME280;1727;42.624;23.406;2023-02-02T01:22:11;94928.69;;;5.50;68.73
3428;BME280;1727;42.624;23.406;2023-02-02T01:24:38;94929.69;;;5.48;68.45
3428;BME280;1727;42.624;23.406;2023-02-02T01:27:05;94925.81;;;5.41;68.25
3428;BME280;1727;42.624;23.406;2023-02-02T01:29:32;94919.88;;;5.39;68.34
3428;BME280;1727;42.624;23.406;2023-02-02T01:32:00;94918.22;;;5.38;69.46
3428;BME280;1727;42.624;23.406;2023-02-02T01:34:27;94914.66;;;5.39;69.27
3428;BME280;1727;42.624;23.406;2023-02-02T01:36:53;94920.94;;;5.49;69.81
3428;BME280;1727;42.624;23.406;2023-02-02T01:39:20;94910.34;;;5.52;69.27
3428;BME280;1727;42.624;23.406;2023-02-02T01:41:47;94911.34;;;5.37;68.23
3428;BME280;1727;42.624;23.406;2023-02-02T01:47:23;94912.75;;;5.28;69.30
3428;BME280;1727;42.624;23.406;2023-02-02T01:49:51;94902.56;;;5.25;69.57
3428;BME280;1727;42.624;23.406;2023-02-02T01:52:20;94903.03;;;5.17;68.31
3428;BME280;1727;42.624;23.406;2023-02-02T01:54:50;94901.09;;;5.21;69.45
3428;BME280;1727;42.624;23.406;2023-02-02T01:57:22;94894.44;;;5.29;68.83
3428;BME280;1727;42.624;23.406;2023-02-02T01:59:51;94898.09;;;5.27;69.54
3428;BME280;1727;42.624;23.406;2023-02-02T02:02:21;94900.88;;;5.24;68.75
3428;BME280;1727;42.624;23.406;2023-02-02T02:04:49;94893.00;;;5.25;68.91
3428;BME280;1727;42.624;23.406;2023-02-02T02:07:16;94890.81;;;5.32;68.16
3428;BME280;1727;42.624;23.406;2023-02-02T02:09:43;94891.03;;;5.15;69.45
3428;BME280;1727;42.624;23.406;2023-02-02T02:12:10;94892.38;;;5.08;70.26
3428;BME280;1727;42.624;23.406;2023-02-02T02:14:40;94892.53;;;5.19;70.25
3428;BME280;1727;42.624;23.406;2023-02-02T02:17:43;94894.66;;;5.26;69.73
3428;BME280;1727;42.624;23.406;2023-02-02T02:20:30;94898.19;;;5.25;69.79
3428;BME280;1727;42.624;23.406;2023-02-02T02:26:54;94903.19;;;4.87;71.00
3428;BME280;1727;42.624;23.406;2023-02-02T02:32:35;94903.47;;;4.83;70.46
3428;BME280;1727;42.624;23.406;2023-02-02T02:35:09;94907.28;;;4.77;70.58
3428;BME280;1727;42.624;23.406;2023-02-02T02:37:43;94903.75;;;4.78;70.99
3428;BME280;1727;42.624;23.406;2023-02-02T02:40:17;94887.63;;;4.73;71.45
3428;BME280;1727;42.624;23.406;2023-02-02T02:42:49;94897.19;;;4.73;71.15
3428;BME280;1727;42.624;23.406;2023-02-02T02:45:18;94892.91;;;4.72;70.72
3428;BME280;1727;42.624;23.406;2023-02-02T02:47:47;94895.63;;;4.70;69.44
3428;BME280;1727;42.624;23.406;2023-02-02T02:50:15;94891.16;;;4.72;68.75
3428;BME280;1727;42.624;23.406;2023-02-02T02:52:44;94894.03;;;4.68;69.14
3428;BME280;1727;42.624;23.406;2023-02-02T02:55:11;94896.16;;;4.75;69.14
3428;BME280;1727;42.624;23.406;2023-02-02T02:57:51;94896.59;;;4.82;68.67
3428;BME280;1727;42.624;23.406;2023-02-02T03:00:28;94899.66;;;4.88;69.73
3428;BME280;1727;42.624;23.406;2023-02-02T03:03:05;94901.50;;;4.86;69.77
3428;BME280;1727;42.624;23.406;2023-02-02T03:05:40;94896.22;;;4.88;68.75
3428;BME280;1727;42.624;23.406;2023-02-02T03:08:16;94898.72;;;4.89;67.96
3428;BME280;1727;42.624;23.406;2023-02-02T03:10:46;94891.94;;;4.87;68.71
3428;BME280;1727;42.624;23.406;2023-02-02T03:13:13;94884.78;;;4.90;69.01
3428;BME280;1727;42.624;23.406;2023-02-02T03:15:41;94891.59;;;4.93;68.67
3428;BME280;1727;42.624;23.406;2023-02-02T03:18:12;94891.94;;;5.01;67.40
3428;BME280;1727;42.624;23.406;2023-02-02T03:20:39;94889.72;;;4.95;67.92
3428;BME280;1727;42.624;23.406;2023-02-02T03:23:06;94882.19;;;4.90;67.52
3428;BME280;1727;42.624;23.406;2023-02-02T03:25:32;94886.09;;;4.97;69.00
3428;BME280;1727;42.624;23.406;2023-02-02T03:27:59;94879.97;;;4.98;67.71
3428;BME280;1727;42.624;23.406;2023-02-02T03:30:26;94888.91;;;4.94;66.58
3428;BME280;1727;42.624;23.406;2023-02-02T03:32:53;94888.06;;;4.94;67.74
3428;BME280;1727;42.624;23.406;2023-02-02T03:35:22;94883.94;;;5.04;67.41
3428;BME280;1727;42.624;23.406;2023-02-02T03:37:50;94889.38;;;5.14;68.31
3428;BME280;1727;42.624;23.406;2023-02-02T03:40:17;94889.56;;;5.11;67.72
3428;BME280;1727;42.624;23.406;2023-02-02T03:42:44;94895.41;;;5.14;67.22
3428;BME280;1727;42.624;23.406;2023-02-02T03:45:11;94902.91;;;5.19;67.16
3428;BME280;1727;42.624;23.406;2023-02-02T03:47:38;94897.66;;;5.20;66.96
3428;BME280;1727;42.624;23.406;2023-02-02T03:50:07;94885.13;;;5.13;66.75
3428;BME280;1727;42.624;23.406;2023-02-02T03:52:35;94894.78;;;5.11;67.80
3428;BME280;1727;42.624;23.406;2023-02-02T03:55:02;94905.44;;;4.93;67.43
3428;BME280;1727;42.624;23.406;2023-02-02T03:57:29;94901.16;;;4.92;68.77
3428;BME280;1727;42.624;23.406;2023-02-02T03:59:56;94901.50;;;4.86;69.41
3428;BME280;1727;42.624;23.406;2023-02-02T04:02:23;94916.97;;;4.47;72.93
3428;BME280;1727;42.624;23.406;2023-02-02T04:04:50;94907.25;;;4.36;74.22
3428;BME280;1727;42.624;23.406;2023-02-02T04:07:17;94916.50;;;4.12;76.19
3428;BME280;1727;42.624;23.406;2023-02-02T04:09:45;94904.28;;;3.84;78.01
3428;BME280;1727;42.624;23.406;2023-02-02T04:12:12;94899.69;;;3.43;79.93
3428;BME280;1727;42.624;23.406;2023-02-02T04:14:38;94909.41;;;3.39;80.32
3428;BME280;1727;42.624;23.406;2023-02-02T04:17:05;94913.72;;;3.25;82.10
3428;BME280;1727;42.624;23.406;2023-02-02T04:19:32;94915.22;;;3.29;82.96
3428;BME280;1727;42.624;23.406;2023-02-02T04:21:58;94921.97;;;3.47;82.30
3428;BME280;1727;42.624;23.406;2023-02-02T04:24:25;94915.44;;;3.56;80.59
3428;BME280;1727;42.624;23.406;2023-02-02T04:26:53;94917.19;;;3.55;80.05
3428;BME280;1727;42.624;23.406;2023-02-02T04:29:20;94921.75;;;3.66;80.14
3428;BME280;1727;42.624;23.406;2023-02-02T04:31:47;94918.88;;;3.70;80.03
3428;BME280;1727;42.624;23.406;2023-02-02T04:34:14;94920.56;;;3.71;78.90
3428;BME280;1727;42.624;23.406;2023-02-02T04:36:40;94923.69;;;3.62;78.84
3428;BME280;1727;42.624;23.406;2023-02-02T04:39:09;94925.84;;;3.70;79.33
3428;BME280;1727;42.624;23.406;2023-02-02T04:41:36;94915.97;;;3.77;79.20
3428;BME280;1727;42.624;23.406;2023-02-02T04:44:11;94919.59;;;3.88;78.96
3428;BME280;1727;42.624;23.406;2023-02-02T04:46:39;94903.09;;;3.89;78.18
3428;BME280;1727;42.624;23.406;2023-02-02T04:49:06;94927.28;;;3.90;77.03
3428;BME280;1727;42.624;23.406;2023-02-02T04:51:33;94936.94;;;3.88;76.47
3428;BME280;1727;42.624;23.406;2023-02-02T04:54:00;94928.22;;;3.89;75.54
3428;BME280;1727;42.624;23.406;2023-02-02T04:56:27;94939.88;;;3.82;75.44
3428;BME280;1727;42.624;23.406;2023-02-02T04:58:54;94932.78;;;3.69;75.87
3428;BME280;1727;42.624;23.406;2023-02-02T05:01:22;94927.59;;;3.69;75.92
3428;BME280;1727;42.624;23.406;2023-02-02T05:03:49;94936.38;;;3.67;75.99
3428;BME280;1727;42.624;23.406;2023-02-02T05:06:17;94925.19;;;3.66;76.01
3428;BME280;1727;42.624;23.406;2023-02-02T05:08:44;94931.28;;;3.65;74.96
3428;BME280;1727;42.624;23.406;2023-02-02T05:11:14;94927.19;;;3.61;75.51
3428;BME280;1727;42.624;23.406;2023-02-02T05:13:44;94923.13;;;3.57;75.34
3428;BME280;1727;42.624;23.406;2023-02-02T05:16:11;94931.81;;;3.56;75.08
3428;BME280;1727;42.624;23.406;2023-02-02T05:18:39;94929.97;;;3.58;74.70
3428;BME280;1727;42.624;23.406;2023-02-02T05:21:07;94928.41;;;3.56;75.28
3428;BME280;1727;42.624;23.406;2023-02-02T05:23:33;94932.75;;;3.55;74.02
3428;BME280;1727;42.624;23.406;2023-02-02T05:26:00;94927.00;;;3.50;74.11
3428;BME280;1727;42.624;23.406;2023-02-02T05:28:27;94920.94;;;3.20;75.51
3428;BME280;1727;42.624;23.406;2023-02-02T05:30:54;94924.84;;;3.11;76.38
3428;BME280;1727;42.624;23.406;2023-02-02T05:33:21;94940.59;;;2.92;77.07
3428;BME280;1727;42.624;23.406;2023-02-02T05:35:49;94924.50;;;2.54;80.09
3428;BME280;1727;42.624;23.406;2023-02-02T05:38:17;94930.91;;;2.14;84.30
3428;BME280;1727;42.624;23.406;2023-02-02T05:40:43;94937.13;;;2.27;84.03
3428;BME280;1727;42.624;23.406;2023-02-02T05:43:10;94939.34;;;2.35;84.11
3428;BME280;1727;42.624;23.406;2023-02-02T05:45:37;94942.63;;;2.21;85.04
3428;BME280;1727;42.624;23.406;2023-02-02T05:48:04;94946.19;;;2.36;84.49
3428;BME280;1727;42.624;23.406;2023-02-02T05:50:31;94950.69;;;2.32;85.43
3428;BME280;1727;42.624;23.406;2023-02-02T05:52:59;94955.72;;;2.35;84.28
3428;BME280;1727;42.624;23.406;2023-02-02T05:55:26;94952.94;;;2.38;84.73
3428;BME280;1727;42.624;23.406;2023-02-02T05:57:53;94959.00;;;2.22;86.14
3428;BME280;1727;42.624;23.406;2023-02-02T06:00:20;94964.41;;;2.50;85.43
3428;BME280;1727;42.624;23.406;2023-02-02T06:02:47;94965.25;;;2.51;85.28
3428;BME280;1727;42.624;23.406;2023-02-02T06:05:14;94957.97;;;2.41;87.20
3428;BME280;1727;42.624;23.406;2023-02-02T06:07:41;94962.91;;;2.46;85.97
3428;BME280;1727;42.624;23.406;2023-02-02T06:10:10;94951.03;;;2.42;86.66
3428;BME280;1727;42.624;23.406;2023-02-02T06:12:37;94950.38;;;2.38;86.64
3428;BME280;1727;42.624;23.406;2023-02-02T06:15:04;94967.69;;;2.54;85.95
3428;BME280;1727;42.624;23.406;2023-02-02T06:17:31;94957.91;;;7.70;100.00
3428;BME280;1727;42.624;23.406;2023-02-02T06:19:58;94966.94;;;7.29;100.00
3428;BME280;1727;42.624;23.406;2023-02-02T06:22:25;94966.88;;;6.16;100.00
3428;BME280;1727;42.624;23.406;2023-02-02T06:24:51;94978.34;;;5.33;84.79
3428;BME280;1727;42.624;23.406;2023-02-02T06:27:20;94987.81;;;5.20;80.65
3428;BME280;1727;42.624;23.406;2023-02-02T06:29:46;94999.75;;;5.10;80.00
3428;BME280;1727;42.624;23.406;2023-02-02T06:32:13;95000.50;;;4.83;79.76
3428;BME280;1727;42.624;23.406;2023-02-02T06:34:40;95001.72;;;4.78;79.89
3428;BME280;1727;42.624;23.406;2023-02-02T06:37:07;95002.44;;;4.51;80.84
3428;BME280;1727;42.624;23.406;2023-02-02T06:39:34;95004.19;;;4.37;82.74
3428;BME280;1727;42.624;23.406;2023-02-02T06:42:00;95000.06;;;4.32;83.56
3428;BME280;1727;42.624;23.406;2023-02-02T06:44:29;95003.03;;;4.26;83.68
3428;BME280;1727;42.624;23.406;2023-02-02T06:46:55;95009.72;;;4.30;82.04
3428;BME280;1727;42.624;23.406;2023-02-02T06:49:22;95013.03;;;4.18;82.10
3428;BME280;1727;42.624;23.406;2023-02-02T06:51:49;95017.84;;;4.10;82.08
3428;BME280;1727;42.624;23.406;2023-02-02T06:54:16;95012.19;;;4.18;82.77
3428;BME280;1727;42.624;23.406;2023-02-02T06:56:43;95011.22;;;4.04;82.42
3428;BME280;1727;42.624;23.406;2023-02-02T06:59:09;95019.78;;;4.07;82.62
3428;BME280;1727;42.624;23.406;2023-02-02T07:01:37;95006.56;;;3.95;83.19
3428;BME280;1727;42.624;23.406;2023-02-02T07:04:04;95009.59;;;3.88;82.66
3428;BME280;1727;42.624;23.406;2023-02-02T07:06:31;95029.44;;;3.89;83.65
3428;BME280;1727;42.624;23.406;2023-02-02T07:08:59;95020.66;;;3.91;83.96
3428;BME280;1727;42.624;23.406;2023-02-02T07:11:25;95021.47;;;3.92;83.97
3428;BME280;1727;42.624;23.406;2023-02-02T07:13:52;95027.25;;;3.97;84.50
3428;BME280;1727;42.624;23.406;2023-02-02T07:16:19;95037.41;;;3.86;83.66
3428;BME280;1727;42.624;23.406;2023-02-02T07:18:47;95019.44;;;3.97;84.50
3428;BME280;1727;42.624;23.406;2023-02-02T07:21:16;95010.78;;;3.82;86.27
3428;BME280;1727;42.624;23.406;2023-02-02T07:23:44;95016.19;;;3.93;85.91
3428;BME280;1727;42.624;23.406;2023-02-02T07:26:12;95028.53;;;3.90;85.41
3428;BME280;1727;42.624;23.406;2023-02-02T07:28:39;95031.91;;;3.60;87.03
3428;BME280;1727;42.624;23.406;2023-02-02T07:31:16;95022.59;;;3.88;85.80
3428;BME280;1727;42.624;23.406;2023-02-02T07:33:45;95028.78;;;3.85;86.17
3428;BME280;1727;42.624;23.406;2023-02-02T07:36:14;95029.19;;;3.93;85.25
3428;BME280;1727;42.624;23.406;2023-02-02T07:38:42;95033.50;;;4.09;85.12
3428;BME280;1727;42.624;23.406;2023-02-02T07:41:09;95030.28;;;4.19;84.69
3428;BME280;1727;42.624;23.406;2023-02-02T07:43:35;95025.53;;;4.12;85.02
3428;BME280;1727;42.624;23.406;2023-02-02T07:46:04;95033.91;;;4.17;84.88
3428;BME280;1727;42.624;23.406;2023-02-02T07:48:33;95031.41;;;4.29;85.21
3428;BME280;1727;42.624;23.406;2023-02-02T07:51:00;95011.97;;;4.37;83.96
3428;BME280;1727;42.624;23.406;2023-02-02T07:53:28;95020.81;;;4.48;82.47
3428;BME280;1727;42.624;23.406;2023-02-02T07:56:05;95014.41;;;4.54;81.54
3428;BME280;1727;42.624;23.406;2023-02-02T07:58:32;94992.91;;;4.22;83.12
3428;BME280;1727;42.624;23.406;2023-02-02T08:01:00;94988.94;;;4.30;83.84
3428;BME280;1727;42.624;23.406;2023-02-02T08:03:27;94993.78;;;4.37;83.50
3428;BME280;1727;42.624;23.406;2023-02-02T08:05:54;94984.16;;;4.53;82.76
3428;BME280;1727;42.624;23.406;2023-02-02T08:08:20;94988.41;;;4.54;81.62
3428;BME280;1727;42.624;23.406;2023-02-02T08:10:49;94975.06;;;4.46;82.15
3428;BME280;1727;42.624;23.406;2023-02-02T08:13:16;94987.22;;;4.59;81.68
3428;BME280;1727;42.624;23.406;2023-02-02T08:15:43;94977.38;;;4.50;83.42
3428;BME280;1727;42.624;23.406;2023-02-02T08:18:09;94966.97;;;4.50;82.77
3428;BME280;1727;42.624;23.406;2023-02-02T08:20:36;94962.16;;;4.73;83.03
3428;BME280;1727;42.624;23.406;2023-02-02T08:23:03;94972.47;;;4.74;82.97
3428;BME280;1727;42.624;23.406;2023-02-02T08:25:32;94970.03;;;5.00;83.45
3428;BME280;1727;42.624;23.406;2023-02-02T08:28:00;94970.94;;;5.13;80.99
3428;BME280;1727;42.624;23.406;2023-02-02T08:30:29;94964.34;;;5.21;80.71
3428;BME280;1727;42.624;23.406;2023-02-02T08:32:56;94963.91;;;5.01;80.14
3428;BME280;1727;42.624;23.406;2023-02-02T08:35:23;94967.88;;;5.06;80.32
3428;BME280;1727;42.624;23.406;2023-02-02T08:37:50;94967.78;;;5.08;79.95
3428;BME280;1727;42.624;23.406;2023-02-02T08:40:17;94963.44;;;5.08;81.20
3428;BME280;1727;42.624;23.406;2023-02-02T08:42:44;94963.72;;;5.04;80.03
3428;BME280;1727;42.624;23.406;2023-02-02T08:45:13;94962.78;;;5.05;80.64
3428;BME280;1727;42.624;23.406;2023-02-02T08:47:40;94964.47;;;5.06;79.76
3428;BME280;1727;42.624;23.406;2023-02-02T08:50:08;94957.88;;;5.00;79.13
3428;BME280;1727;42.624;23.406;2023-02-02T08:52:34;94953.28;;;5.18;79.66
3428;BME280;1727;42.624;23.406;2023-02-02T08:55:01;94954.63;;;5.38;79.29
3428;BME280;1727;42.624;23.406;2023-02-02T08:57:28;94963.16;;;5.54;78.24
3428;BME280;1727;42.624;23.406;2023-02-02T08:59:57;94945.75;;;5.54;76.67
3428;BME280;1727;42.624;23.406;2023-02-02T09:02:25;94957.94;;;5.54;75.70
3428;BME280;1727;42.624;23.406;2023-02-02T09:04:51;94957.56;;;5.46;75.42
3428;BME280;1727;42.624;23.406;2023-02-02T09:07:18;94965.28;;;5.47;75.38
3428;BME280;1727;42.624;23.406;2023-02-02T09:09:45;94943.53;;;5.48;75.59
3428;BME280;1727;42.624;23.406;2023-02-02T09:12:11;94948.06;;;5.59;75.54
3428;BME280;1727;42.624;23.406;2023-02-02T09:14:38;94945.59;;;5.70;75.90
3428;BME280;1727;42.624;23.406;2023-02-02T09:17:05;94948.25;;;5.56;75.71
3428;BME280;1727;42.624;23.406;2023-02-02T09:19:33;94946.78;;;5.52;74.52
3428;BME280;1727;42.624;23.406;2023-02-02T09:22:00;94936.19;;;5.55;75.92
3428;BME280;1727;42.624;23.406;2023-02-02T09:24:27;94935.78;;;5.61;75.68
3428;BME280;1727;42.624;23.406;2023-02-02T09:26:54;94942.78;;;5.73;76.23
3428;BME280;1727;42.624;23.406;2023-02-02T09:29:20;94941.91;;;5.87;74.79
3428;BME280;1727;42.624;23.406;2023-02-02T09:31:47;94914.38;;;6.10;75.15
3428;BME280;1727;42.624;23.406;2023-02-02T09:34:14;94921.34;;;6.35;74.13
3428;BME280;1727;42.624;23.406;2023-02-02T09:36:43;94914.38;;;6.22;72.71
3428;BME280;1727;42.624;23.406;2023-02-02T09:39:11;94918.66;;;6.49;72.25
3428;BME280;1727;42.624;23.406;2023-02-02T09:44:52;94914.25;;;6.75;72.43
3428;BME280;1727;42.624;23.406;2023-02-02T09:47:23;94904.44;;;6.78;70.99
3428;BME280;1727;42.624;23.406;2023-02-02T09:49:56;94926.22;;;6.90;70.71
3428;BME280;1727;42.624;23.406;2023-02-02T09:52:32;94919.72;;;7.08;70.48
3428;BME280;1727;42.624;23.406;2023-02-02T09:55:09;94910.94;;;7.09;70.28
3428;BME280;1727;42.624;23.406;2023-02-02T09:57:41;94914.16;;;7.13;69.72
3428;BME280;1727;42.624;23.406;2023-02-02T10:00:18;94896.84;;;7.12;69.48
3428;BME280;1727;42.624;23.406;2023-02-02T10:02:54;94894.91;;;7.03;69.94
3428;BME280;1727;42.624;23.406;2023-02-02T10:05:45;94901.00;;;7.14;69.38
3428;BME280;1727;42.624;23.406;2023-02-02T10:08:23;94894.19;;;7.49;69.39
3428;BME280;1727;42.624;23.406;2023-02-02T10:10:52;94880.38;;;7.59;68.87
3428;BME280;1727;42.624;23.406;2023-02-02T10:13:24;94890.28;;;7.78;68.63
3428;BME280;1727;42.624;23.406;2023-02-02T10:15:59;94886.88;;;7.54;66.63
3428;BME280;1727;42.624;23.406;2023-02-02T10:18:36;94883.22;;;7.56;67.05
3428;BME280;1727;42.624;23.406;2023-02-02T10:21:07;94869.59;;;7.64;67.39
3428;BME280;1727;42.624;23.406;2023-02-02T10:23:38;94868.38;;;7.57;67.61
3428;BME280;1727;42.624;23.406;2023-02-02T10:26:15;94856.75;;;7.61;68.07
3428;BME280;1727;42.624;23.406;2023-02-02T10:28:52;94855.91;;;7.60;68.43
3428;BME280;1727;42.624;23.406;2023-02-02T10:31:35;94858.31;;;7.63;67.63
3428;BME280;1727;42.624;23.406;2023-02-02T10:34:12;94846.16;;;7.86;67.82
3428;BME280;1727;42.624;23.406;2023-02-02T10:37:13;94847.59;;;7.90;66.47
3428;BME280;1727;42.624;23.406;2023-02-02T10:40:03;94845.97;;;8.12;65.24
3428;BME280;1727;42.624;23.406;2023-02-02T10:42:39;94834.47;;;8.25;64.67
3428;BME280;1727;42.624;23.406;2023-02-02T10:45:13;94832.38;;;8.42;59.28
3428;BME280;1727;42.624;23.406;2023-02-02T10:47:43;94829.84;;;8.62;61.50
3428;BME280;1727;42.624;23.406;2023-02-02T10:50:15;94812.03;;;8.79;57.27
3428;BME280;1727;42.624;23.406;2023-02-02T10:52:45;94808.81;;;8.75;56.82
3428;BME280;1727;42.624;23.406;2023-02-02T10:55:20;94799.72;;;8.90;56.72
3428;BME280;1727;42.624;23.406;2023-02-02T10:57:56;94795.91;;;9.06;55.97
3428;BME280;1727;42.624;23.406;2023-02-02T11:00:27;94789.78;;;9.16;55.84
3428;BME280;1727;42.624;23.406;2023-02-02T11:02:55;94791.44;;;9.28;56.21
3428;BME280;1727;42.624;23.406;2023-02-02T11:05:25;94767.03;;;9.49;53.34
3428;BME280;1727;42.624;23.406;2023-02-02T11:08:12;94779.34;;;9.69;52.57
3428;BME280;1727;42.624;23.406;2023-02-02T11:10:42;94776.63;;;9.80;52.46
3428;BME280;1727;42.624;23.406;2023-02-02T11:13:13;94772.75;;;9.96;52.92
3428;BME280;1727;42.624;23.406;2023-02-02T11:15:41;94767.97;;;10.10;51.01
3428;BME280;1727;42.624;23.406;2023-02-02T11:18:26;94757.91;;;10.27;49.92
3428;BME280;1727;42.624;23.406;2023-02-02T11:20:54;94759.59;;;10.37;50.25
3428;BME280;1727;42.624;23.406;2023-02-02T11:23:22;94758.38;;;10.41;48.82
3428;BME280;1727;42.624;23.406;2023-02-02T11:26:00;94740.03;;;10.51;49.94
3428;BME280;1727;42.624;23.406;2023-02-02T11:28:32;94742.25;;;10.55;48.63
3428;BME280;1727;42.624;23.406;2023-02-02T11:30:59;94748.75;;;10.51;49.41
3428;BME280;1727;42.624;23.406;2023-02-02T11:33:30;94735.63;;;10.51;48.50
3428;BME280;1727;42.624;23.406;2023-02-02T11:35:59;94727.91;;;10.50;48.74
3428;BME280;1727;42.624;23.406;2023-02-02T11:38:27;94732.75;;;10.54;47.29
3428;BME280;1727;42.624;23.406;2023-02-02T11:40:57;94720.59;;;10.53;48.90
3428;BME280;1727;42.624;23.406;2023-02-02T11:43:31;94721.84;;;10.59;49.30
3428;BME280;1727;42.624;23.406;2023-02-02T11:46:02;94717.44;;;10.69;48.92
3428;BME280;1727;42.624;23.406;2023-02-02T11:48:32;94716.59;;;10.69;47.66
3428;BME280;1727;42.624;23.406;2023-02-02T11:51:00;94709.19;;;10.74;48.83
3428;BME280;1727;42.624;23.406;2023-02-02T11:53:30;94714.16;;;10.77;48.77
3428;BME280;1727;42.624;23.406;2023-02-02T11:56:00;94713.47;;;10.75;47.41
3428;BME280;1727;42.624;23.406;2023-02-02T11:58:42;94695.91;;;10.75;47.53
3428;BME280;1727;42.624;23.406;2023-02-02T12:01:22;94703.66;;;10.77;46.47
3428;BME280;1727;42.624;23.406;2023-02-02T12:03:51;94687.63;;;10.80;46.28
3428;BME280;1727;42.624;23.406;2023-02-02T12:06:20;94689.84;;;10.84;47.07
3428;BME280;1727;42.624;23.406;2023-02-02T12:08:47;94692.31;;;10.86;45.34
3428;BME280;1727;42.624;23.406;2023-02-02T12:11:37;94677.28;;;10.88;45.70
3428;BME280;1727;42.624;23.406;2023-02-02T12:14:26;94680.59;;;10.90;46.39
3428;BME280;1727;42.624;23.406;2023-02-02T12:17:05;94684.88;;;10.91;46.23
3428;BME280;1727;42.624;23.406;2023-02-02T12:19:50;94682.66;;;10.86;44.32
3428;BME280;1727;42.624;23.406;2023-02-02T12:22:29;94677.41;;;10.86;45.02
3428;BME280;1727;42.624;23.406;2023-02-02T12:25:07;94667.75;;;10.87;44.12
3428;BME280;1727;42.624;23.406;2023-02-02T12:27:47;94677.28;;;10.88;44.44
3428;BME280;1727;42.624;23.406;2023-02-02T12:30:26;94675.47;;;10.79;44.28
3428;BME280;1727;42.624;23.406;2023-02-02T12:33:21;94682.66;;;10.77;46.04
3428;BME280;1727;42.624;23.406;2023-02-02T12:36:05;94681.25;;;10.63;46.44
3428;BME280;1727;42.624;23.406;2023-02-02T12:38:51;94687.16;;;10.55;49.18
3428;BME280;1727;42.624;23.406;2023-02-02T12:41:35;94685.66;;;10.53;49.40
3428;BME280;1727;42.624;23.406;2023-02-02T12:44:12;94679.84;;;10.49;49.22
3428;BME280;1727;42.624;23.406;2023-02-02T12:46:52;94680.81;;;10.48;48.70
3428;BME280;1727;42.624;23.406;2023-02-02T12:52:23;94679.31;;;10.15;45.38
3428;BME280;1727;42.624;23.406;2023-02-02T12:55:14;94676.34;;;10.09;47.62
3428;BME280;1727;42.624;23.406;2023-02-02T12:57:52;94680.88;;;9.97;46.86
3428;BME280;1727;42.624;23.406;2023-02-02T13:03:26;94680.31;;;9.63;47.63
3428;BME280;1727;42.624;23.406;2023-02-02T13:08:55;94682.53;;;9.47;48.82
3428;BME280;1727;42.624;23.406;2023-02-02T13:11:31;94684.44;;;9.45;49.46
3428;BME280;1727;42.624;23.406;2023-02-02T13:14:06;94675.19;;;9.41;50.00
3428;BME280;1727;42.624;23.406;2023-02-02T13:16:36;94674.94;;;9.44;49.46
3428;BME280;1727;42.624;23.406;2023-02-02T13:19:10;94683.19;;;9.39;49.66
3428;BME280;1727;42.624;23.406;2023-02-02T13:21:41;94670.66;;;9.43;55.12
3428;BME280;1727;42.624;23.406;2023-02-02T13:24:12;94678.34;;;9.55;49.63
3428;BME280;1727;42.624;23.406;2023-02-02T13:26:42;94672.88;;;9.68;49.78
3428;BME280;1727;42.624;23.406;2023-02-02T13:29:21;94681.56;;;9.69;49.14
3428;BME280;1727;42.624;23.406;2023-02-02T13:31:56;94673.44;;;9.72;49.02
3428;BME280;1727;42.624;23.406;2023-02-02T13:34:37;94675.88;;;9.63;49.25
3428;BME280;1727;42.624;23.406;2023-02-02T13:37:12;94678.78;;;9.60;48.87
3428;BME280;1727;42.624;23.406;2023-02-02T13:39:43;94673.94;;;9.56;49.05
3428;BME280;1727;42.624;23.406;2023-02-02T13:42:19;94684.53;;;9.54;48.75
3428;BME280;1727;42.624;23.406;2023-02-02T13:44:53;94672.06;;;9.47;47.29
3428;BME280;1727;42.624;23.406;2023-02-02T13:47:25;94671.31;;;9.35;47.79
3428;BME280;1727;42.624;23.406;2023-02-02T13:50:01;94677.63;;;9.32;48.10
3428;BME280;1727;42.624;23.406;2023-02-02T13:52:47;94667.34;;;9.20;48.27
3428;BME280;1727;42.624;23.406;2023-02-02T13:56:01;94689.94;;;9.21;48.51
3428;BME280;1727;42.624;23.406;2023-02-02T13:59:05;94675.31;;;9.18;49.32